Time;durP1;ratioP1;P1;durP2;ratioP2;P2;SDS_P1;SDS_P2;PMS_P1;PMS_P2;Temp;Humidity;BMP_temperature;BMP_pressure;BME280_temperature;BME280_humidity;BME280_pressure;Samples;Min_cycle;Max_cycle;Signal;HPM_P1;HPM_P2
2023/04/07 00:01:46;;;;;;;6.60;6.10;;;10.80;99.90;;;;;;4880790;29;20413;-77
2023/04/07 00:04:11;;;;;;;6.80;6.30;;;10.80;99.90;;;;;;4878946;29;20180;-76
2023/04/07 00:06:37;;;;;;;6.13;5.73;;;10.90;99.90;;;;;;4880662;29;20630;-77
2023/04/07 00:09:03;;;;;;;6.03;5.60;;;10.90;99.90;;;;;;4877064;29;20535;-80
2023/04/07 00:11:29;;;;;;;7.13;6.43;;;10.90;99.90;;;;;;4878450;29;20189;-77
2023/04/07 00:13:54;;;;;;;7.63;6.93;;;10.90;99.90;;;;;;4880107;29;20182;-77
2023/04/07 00:16:20;;;;;;;6.80;6.30;;;11.00;99.90;;;;;;4879802;29;20234;-78
2023/04/07 00:18:46;;;;;;;6.27;5.87;;;11.00;99.90;;;;;;4879951;29;20244;-77
2023/04/07 00:21:12;;;;;;;7.30;6.80;;;11.00;99.90;;;;;;4878549;29;20194;-78
2023/04/07 00:23:37;;;;;;;7.03;6.53;;;11.00;99.90;;;;;;4880613;29;20180;-77
2023/04/07 00:26:03;;;;;;;6.90;6.40;;;11.10;99.90;;;;;;4879813;29;20180;-78
2023/04/07 00:28:29;;;;;;;6.97;6.37;;;11.10;99.90;;;;;;4879137;29;20172;-78
2023/04/07 00:30:55;;;;;;;6.60;6.10;;;11.10;99.90;;;;;;4879166;29;20188;-78
2023/04/07 00:33:20;;;;;;;6.93;6.43;;;11.10;99.90;;;;;;4877812;29;20193;-78
2023/04/07 00:35:46;;;;;;;6.40;5.97;;;11.10;99.90;;;;;;4877653;29;20215;-78
2023/04/07 00:38:12;;;;;;;6.97;6.50;;;11.10;99.90;;;;;;4877475;29;20285;-78
2023/04/07 00:40:37;;;;;;;6.87;6.33;;;11.10;99.90;;;;;;4880040;29;20179;-78
2023/04/07 00:43:03;;;;;;;6.60;6.20;;;11.10;99.90;;;;;;4878899;29;20180;-78
2023/04/07 00:45:29;;;;;;;7.37;6.77;;;11.10;99.90;;;;;;4880212;29;20253;-78
2023/04/07 00:47:57;;;;;;;7.07;6.57;;;11.10;99.90;;;;;;4879013;29;20275;-78
2023/04/07 00:50:23;;;;;;;7.60;7.00;;;11.10;99.90;;;;;;4878260;29;20679;-78
2023/04/07 00:52:49;;;;;;;7.70;7.10;;;11.20;99.90;;;;;;4879967;29;20569;-77
2023/04/07 00:55:15;;;;;;;7.60;7.10;;;11.20;99.90;;;;;;4879168;29;20207;-77
2023/04/07 00:57:41;;;;;;;7.30;6.80;;;11.10;99.90;;;;;;4878668;29;20435;-78
2023/04/07 01:00:08;;;;;;;8.00;7.30;;;11.10;99.90;;;;;;4879200;29;20172;-78
2023/04/07 01:02:59;;;;;;;7.83;7.23;;;11.00;99.90;;;;;;4877188;29;20639;-78
2023/04/07 01:05:38;;;;;;;7.17;6.57;;;11.00;99.90;;;;;;4878112;29;20466;-78
2023/04/07 01:08:40;;;;;;;8.13;7.43;;;10.90;99.90;;;;;;4875384;29;20451;-77
2023/04/07 01:11:19;;;;;;;7.20;6.60;;;10.90;99.90;;;;;;4878934;29;20412;-78
2023/04/07 01:13:49;;;;;;;7.63;7.03;;;11.00;99.90;;;;;;4879781;29;20408;-78
2023/04/07 01:16:36;;;;;;;7.67;7.10;;;11.10;99.90;;;;;;4877441;29;20482;-78
2023/04/07 01:19:33;;;;;;;7.90;7.30;;;11.10;99.90;;;;;;4877833;29;20451;-78
2023/04/07 01:22:00;;;;;;;7.33;6.77;;;11.10;99.90;;;;;;4864636;29;20463;-78
2023/04/07 01:24:44;;;;;;;8.43;7.73;;;11.20;99.90;;;;;;4892501;29;20938;-78
2023/04/07 01:27:18;;;;;;;8.20;7.50;;;11.20;99.90;;;;;;4878732;29;20463;-78
2023/04/07 01:29:47;;;;;;;8.37;7.77;;;11.20;99.90;;;;;;4879413;29;20399;-78
2023/04/07 01:32:14;;;;;;;8.87;8.07;;;11.30;99.90;;;;;;4877401;29;20771;-78
2023/04/07 01:34:41;;;;;;;8.70;8.10;;;11.20;99.90;;;;;;4878658;29;20764;-77
2023/04/07 01:37:07;;;;;;;9.43;8.47;;;11.20;99.90;;;;;;4877260;29;20409;-78
2023/04/07 01:39:34;;;;;;;8.87;8.17;;;11.20;99.90;;;;;;4879211;29;20420;-77
2023/04/07 01:42:02;;;;;;;9.00;8.30;;;11.20;99.90;;;;;;4879511;29;20412;-78
2023/04/07 01:44:30;;;;;;;8.57;7.80;;;11.30;99.90;;;;;;4878658;29;20412;-78
2023/04/07 01:46:56;;;;;;;9.47;8.67;;;11.30;99.90;;;;;;4877801;29;20518;-77
2023/04/07 01:49:24;;;;;;;9.77;8.83;;;11.30;99.90;;;;;;4878221;29;20415;-78
2023/04/07 01:51:50;;;;;;;9.27;8.57;;;11.30;99.90;;;;;;4879022;29;20400;-77
2023/04/07 01:54:17;;;;;;;9.60;8.70;;;11.30;99.90;;;;;;4878029;29;20889;-78
2023/04/07 01:56:44;;;;;;;10.07;9.17;;;11.30;99.90;;;;;;4876880;29;20824;-77
2023/04/07 01:59:10;;;;;;;9.50;8.70;;;11.30;99.90;;;;;;4877426;29;20432;-78
2023/04/07 02:01:36;;;;;;;9.30;8.50;;;11.30;99.90;;;;;;4878900;29;20404;-77
2023/04/07 02:04:27;;;;;;;10.30;9.40;;;11.30;99.90;;;;;;4878852;29;20880;-78
2023/04/07 02:07:03;;;;;;;10.23;9.37;;;11.30;99.90;;;;;;4877490;29;20785;-77
2023/04/07 02:09:31;;;;;;;9.40;8.70;;;11.30;99.90;;;;;;4877679;29;20438;-77
2023/04/07 02:12:00;;;;;;;9.80;9.10;;;11.30;99.90;;;;;;4878752;29;20411;-78
2023/04/07 02:14:27;;;;;;;10.33;9.47;;;11.30;99.90;;;;;;4861618;29;20999;-77
2023/04/07 02:16:54;;;;;;;9.83;9.10;;;11.30;99.90;;;;;;4876040;29;20574;-77
2023/04/07 02:19:21;;;;;;;9.90;9.10;;;11.30;99.90;;;;;;4876793;29;20431;-77
2023/04/07 02:21:50;;;;;;;9.63;8.93;;;11.30;99.90;;;;;;4877609;29;20466;-77
2023/04/07 02:24:19;;;;;;;9.63;8.90;;;11.30;99.90;;;;;;4877935;29;20502;-77
2023/04/07 02:26:46;;;;;;;10.13;9.23;;;11.30;99.90;;;;;;4877545;29;20433;-77
2023/04/07 02:29:12;;;;;;;10.60;9.67;;;11.30;99.90;;;;;;4877828;29;20413;-77
2023/04/07 02:31:38;;;;;;;10.53;9.60;;;11.30;99.90;;;;;;4877864;29;20471;-78
2023/04/07 02:34:04;;;;;;;10.77;9.77;;;11.30;99.90;;;;;;4876949;29;20440;-78
2023/04/07 02:36:30;;;;;;;10.80;9.90;;;11.30;99.90;;;;;;4877220;29;20599;-78
2023/04/07 02:38:56;;;;;;;10.77;9.87;;;11.30;99.90;;;;;;4878567;29;20578;-78
2023/04/07 02:41:21;;;;;;;11.47;10.40;;;11.30;99.90;;;;;;4877765;29;20419;-78
2023/04/07 02:43:47;;;;;;;10.73;9.80;;;11.30;99.90;;;;;;4877348;29;20411;-78
2023/04/07 02:46:13;;;;;;;10.30;9.40;;;11.30;99.90;;;;;;4876522;29;20594;-78
2023/04/07 02:48:39;;;;;;;10.17;9.23;;;11.30;99.90;;;;;;4878439;29;20232;-78
2023/04/07 02:51:04;;;;;;;10.60;9.70;;;11.30;99.90;;;;;;4878307;29;20183;-78
2023/04/07 02:53:30;;;;;;;11.07;10.00;;;11.30;99.90;;;;;;4877028;29;20187;-78
2023/04/07 02:55:56;;;;;;;11.33;10.43;;;11.30;99.90;;;;;;4877257;29;20791;-78
2023/04/07 02:58:22;;;;;;;11.27;10.27;;;11.30;99.90;;;;;;4877419;29;20204;-78
2023/04/07 03:00:48;;;;;;;11.40;10.43;;;11.30;99.90;;;;;;4877657;29;20176;-78
2023/04/07 03:03:14;;;;;;;10.97;9.97;;;11.30;99.90;;;;;;4877600;29;20180;-78
2023/04/07 03:05:40;;;;;;;11.17;10.10;;;11.30;99.90;;;;;;4876223;29;20778;-78
2023/04/07 03:08:06;;;;;;;11.83;10.80;;;11.30;99.90;;;;;;4876214;29;20487;-78
2023/04/07 03:10:31;;;;;;;11.93;10.73;;;11.30;99.90;;;;;;4876449;29;20212;-78
2023/04/07 03:13:00;;;;;;;11.40;10.40;;;11.30;99.90;;;;;;4878258;29;20221;-78
2023/04/07 03:15:26;;;;;;;12.27;11.17;;;11.30;99.90;;;;;;4876054;29;20210;-78
2023/04/07 03:17:51;;;;;;;12.33;11.23;;;11.30;99.90;;;;;;4876788;29;20484;-78
2023/04/07 03:20:17;;;;;;;11.67;10.67;;;11.30;99.90;;;;;;4876313;29;20183;-78
2023/04/07 03:22:43;;;;;;;12.17;11.10;;;11.30;99.90;;;;;;4875975;29;20243;-78
2023/04/07 03:25:09;;;;;;;12.73;11.53;;;11.30;99.90;;;;;;4877641;29;20423;-78
2023/04/07 03:27:35;;;;;;;12.87;11.67;;;11.30;99.90;;;;;;4877309;29;20440;-78
2023/04/07 03:30:01;;;;;;;13.07;11.77;;;11.30;99.90;;;;;;4880133;29;20509;-78
2023/04/07 03:32:27;;;;;;;11.50;10.50;;;11.30;99.90;;;;;;4879986;29;20192;-78
2023/04/07 03:34:53;;;;;;;11.20;10.20;;;11.30;99.90;;;;;;4880814;29;20750;-78
2023/04/07 03:37:19;;;;;;;11.37;10.27;;;11.30;99.90;;;;;;4880654;29;20632;-78
2023/04/07 03:39:45;;;;;;;13.90;10.60;;;11.30;99.90;;;;;;4880489;29;20220;-78
2023/04/07 03:42:12;;;;;;;12.13;11.03;;;11.30;99.90;;;;;;4879992;29;20438;-78
2023/04/07 03:44:37;;;;;;;11.10;10.10;;;11.30;99.90;;;;;;4879779;29;20430;-78
2023/04/07 03:47:03;;;;;;;11.37;10.33;;;11.30;99.90;;;;;;4881287;29;20422;-78
2023/04/07 03:49:30;;;;;;;10.20;9.30;;;11.30;99.90;;;;;;4879657;29;20205;-78
2023/04/07 03:51:56;;;;;;;11.27;10.27;;;11.30;99.90;;;;;;4880098;29;20520;-78
2023/04/07 03:54:22;;;;;;;10.93;10.03;;;11.30;99.90;;;;;;4880600;29;20414;-78
2023/04/07 03:56:48;;;;;;;11.10;10.13;;;11.30;99.90;;;;;;4880078;29;20785;-78
2023/04/07 03:59:14;;;;;;;10.10;9.20;;;11.30;99.90;;;;;;4880233;29;20418;-78
2023/04/07 04:01:39;;;;;;;10.93;9.93;;;11.30;99.90;;;;;;4880979;29;20175;-78
2023/04/07 04:04:05;;;;;;;10.10;9.20;;;11.30;99.90;;;;;;4880007;29;20246;-78
2023/04/07 04:06:31;;;;;;;10.27;9.43;;;11.30;99.90;;;;;;4880040;29;20446;-78
2023/04/07 04:08:57;;;;;;;11.00;9.93;;;11.30;99.90;;;;;;4879570;29;20641;-78
2023/04/07 04:11:22;;;;;;;10.13;9.23;;;11.30;99.90;;;;;;4879357;29;20581;-78
2023/04/07 04:13:48;;;;;;;10.47;9.57;;;11.30;99.90;;;;;;4880051;29;20184;-78
2023/04/07 04:16:14;;;;;;;10.17;9.27;;;11.30;99.90;;;;;;4879874;29;20254;-78
2023/04/07 04:18:40;;;;;;;10.63;9.70;;;11.40;99.90;;;;;;4880340;29;20256;-78
2023/04/07 04:21:07;;;;;;;10.40;9.40;;;11.30;99.90;;;;;;4880940;29;20564;-78
2023/04/07 04:23:32;;;;;;;10.43;9.53;;;11.30;99.90;;;;;;4893219;29;20743;-78
2023/04/07 04:26:02;;;;;;;9.67;8.87;;;11.30;99.90;;;;;;4880299;29;20476;-78
2023/04/07 04:28:28;;;;;;;9.77;8.87;;;11.30;99.90;;;;;;4879153;29;20293;-78
2023/04/07 04:30:54;;;;;;;10.30;9.40;;;11.30;99.90;;;;;;4879598;29;20523;-78
2023/04/07 04:33:20;;;;;;;9.97;9.07;;;11.30;99.90;;;;;;4878861;29;20429;-78
2023/04/07 04:35:46;;;;;;;10.60;9.70;;;11.40;99.90;;;;;;4879614;29;20477;-78
2023/04/07 04:38:11;;;;;;;10.13;9.23;;;11.30;99.90;;;;;;4878897;29;20416;-78
2023/04/07 04:40:37;;;;;;;10.03;9.23;;;11.40;99.90;;;;;;4878019;29;20186;-78
2023/04/07 04:43:06;;;;;;;10.87;9.87;;;11.30;99.90;;;;;;4879490;29;20648;-78
2023/04/07 04:45:35;;;;;;;10.17;9.27;;;11.40;99.90;;;;;;4879501;29;20281;-78
2023/04/07 04:48:00;;;;;;;10.53;9.60;;;11.40;99.90;;;;;;4880488;29;20753;-78
2023/04/07 04:50:26;;;;;;;10.00;9.10;;;11.40;99.90;;;;;;4879104;29;20420;-78
2023/04/07 04:52:52;;;;;;;10.73;9.73;;;11.40;99.90;;;;;;4877151;29;20591;-78
2023/04/07 04:55:18;;;;;;;9.87;9.07;;;11.40;99.90;;;;;;4878968;29;20208;-78
2023/04/07 04:57:44;;;;;;;10.70;9.70;;;11.40;99.90;;;;;;4878848;29;20178;-78
2023/04/07 05:00:10;;;;;;;11.40;10.40;;;11.40;99.90;;;;;;4877727;29;20471;-78
2023/04/07 05:02:36;;;;;;;9.70;8.90;;;11.40;99.90;;;;;;4878062;29;20238;-78
2023/04/07 05:05:02;;;;;;;10.73;9.73;;;11.40;99.90;;;;;;4879807;29;20414;-78
2023/04/07 05:07:28;;;;;;;10.80;9.90;;;11.40;99.90;;;;;;4879042;29;20414;-78
2023/04/07 05:09:54;;;;;;;11.00;10.07;;;11.40;99.90;;;;;;4878328;29;20437;-78
2023/04/07 05:12:20;;;;;;;9.93;9.03;;;11.40;99.90;;;;;;4877733;29;20185;-78
2023/04/07 05:14:46;;;;;;;11.00;9.90;;;11.30;99.90;;;;;;4870305;29;20188;-79
2023/04/07 05:17:12;;;;;;;11.33;10.23;;;11.30;99.90;;;;;;4869453;29;20482;-80
2023/04/07 05:19:38;;;;;;;11.03;10.00;;;11.30;99.90;;;;;;4877958;29;20245;-80
2023/04/07 05:22:04;;;;;;;9.87;9.00;;;11.30;99.90;;;;;;4877650;29;20529;-80
2023/04/07 05:24:29;;;;;;;10.93;9.93;;;11.40;99.90;;;;;;4878081;29;20442;-80
2023/04/07 05:26:55;;;;;;;10.77;9.77;;;11.40;99.90;;;;;;4879802;29;20796;-80
2023/04/07 05:29:22;;;;;;;10.70;9.70;;;11.40;99.90;;;;;;4877260;29;20183;-79
2023/04/07 05:31:47;;;;;;;11.10;10.10;;;11.40;99.90;;;;;;4878543;29;20434;-80
2023/04/07 05:34:13;;;;;;;10.63;9.70;;;11.40;99.90;;;;;;4877836;29;20482;-80
2023/04/07 05:36:39;;;;;;;11.13;10.07;;;11.40;99.90;;;;;;4878169;29;20221;-80
2023/04/07 05:39:05;;;;;;;11.00;9.97;;;11.40;99.90;;;;;;4878968;29;20227;-80
2023/04/07 05:41:31;;;;;;;11.10;10.20;;;11.40;99.90;;;;;;4876171;29;20499;-79
2023/04/07 05:43:56;;;;;;;11.63;10.43;;;11.40;99.90;;;;;;4893352;29;20261;-80
2023/04/07 05:46:22;;;;;;;13.23;11.70;;;11.40;99.90;;;;;;4878763;29;20183;-80
2023/04/07 05:48:48;;;;;;;12.90;11.60;;;11.40;99.90;;;;;;4879156;29;20668;-79
2023/04/07 05:51:14;;;;;;;11.97;10.87;;;11.40;99.90;;;;;;4878412;29;20529;-79
2023/04/07 05:53:40;;;;;;;11.77;10.67;;;11.50;99.90;;;;;;4878031;29;20223;-79
2023/04/07 05:56:06;;;;;;;11.70;10.60;;;11.50;99.90;;;;;;4878655;29;20506;-79
2023/04/07 05:58:31;;;;;;;10.60;9.60;;;11.50;99.90;;;;;;4878105;29;20669;-80
2023/04/07 06:00:58;;;;;;;11.73;10.53;;;11.50;99.90;;;;;;4876501;29;20913;-80
2023/04/07 06:03:23;;;;;;;11.73;10.53;;;11.50;99.90;;;;;;4877214;29;20196;-80
2023/04/07 06:05:49;;;;;;;10.03;9.13;;;11.50;99.90;;;;;;4877303;29;20436;-80
2023/04/07 06:08:15;;;;;;;10.10;9.20;;;11.50;99.90;;;;;;4877724;29;20586;-80
2023/04/07 06:10:41;;;;;;;10.77;9.87;;;11.50;99.90;;;;;;4876705;29;20193;-80
2023/04/07 06:13:07;;;;;;;9.87;8.97;;;11.50;99.90;;;;;;4877916;29;20531;-80
2023/04/07 06:15:32;;;;;;;9.37;8.57;;;11.50;99.90;;;;;;4877286;29;20229;-80
2023/04/07 06:17:58;;;;;;;9.60;8.70;;;11.50;99.90;;;;;;4876283;29;20480;-80
2023/04/07 06:20:26;;;;;;;8.97;8.23;;;11.50;99.90;;;;;;4876748;29;20255;-80
2023/04/07 06:22:53;;;;;;;10.10;9.13;;;11.60;99.90;;;;;;4875684;29;20181;-80
2023/04/07 06:25:19;;;;;;;9.37;8.57;;;11.50;99.90;;;;;;4874204;29;20439;-79
2023/04/07 06:27:45;;;;;;;9.20;8.40;;;11.60;99.90;;;;;;4877449;29;20427;-80
2023/04/07 06:30:11;;;;;;;9.20;8.30;;;11.60;99.90;;;;;;4874925;29;20191;-78
2023/04/07 06:32:36;;;;;;;9.10;8.40;;;11.60;99.90;;;;;;4876823;29;20209;-78
2023/04/07 06:35:02;;;;;;;10.03;9.23;;;11.60;99.90;;;;;;4877223;29;20476;-78
2023/04/07 06:37:28;;;;;;;10.13;9.13;;;11.60;99.90;;;;;;4874479;29;20178;-77
2023/04/07 06:39:54;;;;;;;9.57;8.70;;;11.60;99.90;;;;;;4877582;29;20187;-78
2023/04/07 06:42:19;;;;;;;9.07;8.30;;;11.70;99.90;;;;;;4876519;29;20272;-78
2023/04/07 06:44:45;;;;;;;10.20;9.30;;;11.60;99.90;;;;;;4877772;29;20245;-78
2023/04/07 06:47:11;;;;;;;10.03;9.13;;;11.60;99.90;;;;;;4886492;29;20622;-78
2023/04/07 06:49:37;;;;;;;10.03;9.00;;;11.60;99.90;;;;;;4883460;29;20413;-78
2023/04/07 06:52:05;;;;;;;10.37;9.37;;;11.60;99.90;;;;;;4881816;29;20949;-78
2023/04/07 06:54:31;;;;;;;10.60;9.60;;;11.70;99.90;;;;;;4888034;29;20188;-78
2023/04/07 06:56:56;;;;;;;9.90;9.00;;;11.60;99.90;;;;;;4896905;29;20459;-78
2023/04/07 06:59:22;;;;;;;9.73;8.83;;;11.70;99.90;;;;;;4896488;29;20646;-78
2023/04/07 07:01:48;;;;;;;8.77;7.97;;;11.70;99.90;;;;;;4896696;29;20265;-78
2023/04/07 07:04:14;;;;;;;9.60;8.70;;;11.70;99.90;;;;;;4897993;29;20237;-78
2023/04/07 07:06:40;;;;;;;9.90;8.90;;;11.70;99.90;;;;;;4883347;29;20737;-78
2023/04/07 07:09:05;;;;;;;9.10;8.20;;;11.70;99.90;;;;;;4881949;29;20414;-78
2023/04/07 07:11:31;;;;;;;7.73;7.13;;;11.70;99.90;;;;;;4880354;29;20514;-78
2023/04/07 07:13:57;;;;;;;8.53;7.83;;;11.60;99.90;;;;;;4881915;29;20522;-78
2023/04/07 07:16:23;;;;;;;8.33;7.53;;;11.60;99.90;;;;;;4880154;29;21027;-78
2023/04/07 07:18:50;;;;;;;9.57;8.67;;;11.60;99.90;;;;;;4877102;29;20238;-78
2023/04/07 07:21:17;;;;;;;9.17;8.40;;;11.70;99.90;;;;;;4884531;29;20426;-78
2023/04/07 07:23:43;;;;;;;9.20;8.30;;;11.60;99.90;;;;;;4882578;29;20417;-77
2023/04/07 07:26:09;;;;;;;8.63;7.93;;;11.60;99.90;;;;;;4883242;29;20411;-78
2023/04/07 07:28:35;;;;;;;9.30;8.47;;;11.70;99.90;;;;;;4885078;29;20484;-83
2023/04/07 07:31:09;;;;;;;8.73;7.93;;;11.70;99.90;;;;;;4899868;29;20427;-84
2023/04/07 07:33:34;;;;;;;9.00;8.20;;;11.70;99.90;;;;;;4886562;29;20596;-80
2023/04/07 07:36:00;;;;;;;8.93;8.13;;;11.70;99.90;;;;;;4884034;29;20452;-81
2023/04/07 07:38:26;;;;;;;201.27;133.50;;;11.70;99.90;;;;;;4885722;29;20175;-79
2023/04/07 07:40:52;;;;;;;37.50;26.50;;;11.70;99.90;;;;;;4883912;29;20223;-81
2023/04/07 07:43:18;;;;;;;29.37;22.40;;;11.80;99.90;;;;;;4879299;29;20899;-81
2023/04/07 07:45:43;;;;;;;10.10;9.17;;;11.80;99.90;;;;;;4872476;29;20437;-81
2023/04/07 07:48:10;;;;;;;9.30;8.50;;;11.70;99.90;;;;;;4880779;29;20620;-82
2023/04/07 07:50:36;;;;;;;9.73;8.83;;;11.80;99.90;;;;;;4878868;29;20174;-80
2023/04/07 07:53:01;;;;;;;10.13;9.23;;;11.80;99.90;;;;;;4881146;29;20421;-83
2023/04/07 07:55:27;;;;;;;10.40;9.40;;;11.80;99.90;;;;;;4878231;29;20258;-79
2023/04/07 07:57:53;;;;;;;10.90;9.80;;;11.80;99.90;;;;;;4880850;29;20179;-79
2023/04/07 08:00:19;;;;;;;10.37;9.23;;;11.80;99.90;;;;;;4880746;29;20405;-79
2023/04/07 08:02:45;;;;;;;10.17;9.27;;;11.80;99.90;;;;;;4876791;29;20203;-80
2023/04/07 08:05:11;;;;;;;9.40;8.50;;;11.80;99.90;;;;;;4876011;29;20463;-79
2023/04/07 08:07:37;;;;;;;11.00;9.20;;;11.80;99.90;;;;;;4880081;29;20428;-79
2023/04/07 08:10:06;;;;;;;9.83;8.80;;;11.90;99.90;;;;;;4880873;29;20401;-79
2023/04/07 08:12:31;;;;;;;558.03;357.43;;;11.80;99.90;;;;;;4881198;29;20733;-78
2023/04/07 08:14:57;;;;;;;140.77;82.50;;;11.90;99.90;;;;;;4867659;29;20493;-78
2023/04/07 08:17:23;;;;;;;18.07;14.47;;;11.90;99.90;;;;;;4881078;29;20233;-79
2023/04/07 08:19:49;;;;;;;9.27;8.47;;;11.90;99.90;;;;;;4880367;29;20648;-79
2023/04/07 08:22:14;;;;;;;10.30;9.27;;;11.90;99.90;;;;;;4880172;29;20506;-79
2023/04/07 08:24:40;;;;;;;8.30;7.60;;;11.90;99.90;;;;;;4879854;29;20179;-79
2023/04/07 08:27:06;;;;;;;9.27;8.47;;;11.90;99.90;;;;;;4880598;29;20814;-79
2023/04/07 08:29:32;;;;;;;9.83;8.90;;;11.90;99.90;;;;;;4877783;29;20512;-78
2023/04/07 08:31:57;;;;;;;9.40;8.50;;;12.00;99.90;;;;;;4880252;29;20222;-79
2023/04/07 08:34:23;;;;;;;8.63;7.83;;;11.90;99.90;;;;;;4880359;29;20271;-79
2023/04/07 08:36:49;;;;;;;8.30;7.63;;;11.90;99.90;;;;;;4879541;29;20215;-79
2023/04/07 08:39:15;;;;;;;8.57;7.87;;;11.90;99.90;;;;;;4880386;29;20203;-78
2023/04/07 08:41:41;;;;;;;9.60;8.80;;;11.90;99.90;;;;;;4877897;29;20551;-79
2023/04/07 08:44:10;;;;;;;9.00;8.30;;;12.00;99.90;;;;;;4879742;29;20435;-80
2023/04/07 08:46:40;;;;;;;8.80;8.10;;;12.40;99.90;;;;;;4861664;29;20448;-79
2023/04/07 08:49:12;;;;;;;8.03;7.33;;;12.80;99.90;;;;;;4879689;29;20925;-79
2023/04/07 08:51:46;;;;;;;9.43;8.37;;;13.20;99.90;;;;;;4879401;29;20512;-79
2023/04/07 08:54:17;;;;;;;8.50;7.70;;;13.60;99.90;;;;;;4878180;29;20439;-79
2023/04/07 08:56:43;;;;;;;9.77;8.97;;;14.00;99.90;;;;;;4879110;29;20464;-79
2023/04/07 08:59:12;;;;;;;354.30;176.97;;;14.30;99.90;;;;;;4881026;29;20918;-79
2023/04/07 09:01:38;;;;;;;31.83;23.13;;;14.60;99.90;;;;;;4877899;29;20440;-79
2023/04/07 09:04:08;;;;;;;11.57;10.33;;;14.90;99.90;;;;;;4879313;29;20432;-80
2023/04/07 09:06:34;;;;;;;9.10;8.40;;;15.10;99.90;;;;;;4877191;29;20439;-81
2023/04/07 09:09:01;;;;;;;9.07;8.37;;;15.30;99.90;;;;;;4878754;29;20406;-81
2023/04/07 09:11:28;;;;;;;8.50;7.90;;;15.20;99.90;;;;;;4875744;29;20526;-80
2023/04/07 09:13:54;;;;;;;9.90;9.10;;;15.00;99.90;;;;;;4879361;29;20410;-77
2023/04/07 09:16:21;;;;;;;8.93;8.23;;;14.70;99.90;;;;;;4879379;29;20555;-77
2023/04/07 09:18:46;;;;;;;9.23;8.53;;;14.50;99.90;;;;;;4878980;29;20464;-78
2023/04/07 09:21:12;;;;;;;9.53;8.63;;;14.20;99.90;;;;;;4879824;29;20424;-77
2023/04/07 09:23:40;;;;;;;9.53;8.73;;;14.00;99.90;;;;;;4878985;29;20172;-77
2023/04/07 09:26:23;;;;;;;9.53;8.73;;;13.80;99.90;;;;;;4879748;29;20211;-77
2023/04/07 09:28:56;;;;;;;10.07;9.27;;;13.60;99.90;;;;;;4877776;29;20430;-77
2023/04/07 09:31:42;;;;;;;9.97;9.17;;;13.50;99.90;;;;;;4893230;29;20433;-78
2023/04/07 09:34:23;;;;;;;10.27;9.47;;;13.40;99.90;;;;;;4878357;29;20404;-78
2023/04/07 09:36:50;;;;;;;9.37;8.53;;;13.20;99.90;;;;;;4877722;29;21082;-78
2023/04/07 09:39:15;;;;;;;10.00;9.20;;;13.10;99.90;;;;;;4893854;29;20775;-78
2023/04/07 09:41:41;;;;;;;9.50;8.80;;;13.10;99.90;;;;;;4877262;29;20421;-78
2023/04/07 09:44:07;;;;;;;10.17;9.40;;;13.00;99.90;;;;;;4879485;29;20173;-78
2023/04/07 09:46:33;;;;;;;10.73;9.93;;;12.90;99.90;;;;;;4878377;29;20173;-79
2023/04/07 09:49:06;;;;;;;10.27;9.47;;;12.90;99.90;;;;;;4879104;29;20409;-78
2023/04/07 09:51:32;;;;;;;10.50;9.70;;;12.80;99.90;;;;;;4875808;29;20525;-78
2023/04/07 09:53:58;;;;;;;9.90;9.20;;;12.80;99.90;;;;;;4878887;29;20420;-78
2023/04/07 09:56:25;;;;;;;9.97;9.17;;;12.70;99.90;;;;;;4878860;29;20474;-78
2023/04/07 09:58:52;;;;;;;166.70;124.23;;;12.70;99.90;;;;;;4877341;29;20183;-78
2023/04/07 10:01:19;;;;;;;324.60;195.17;;;12.70;99.90;;;;;;4878286;29;20482;-78
2023/04/07 10:03:46;;;;;;;23.30;19.93;;;12.70;99.90;;;;;;4878230;29;20418;-78
2023/04/07 10:06:15;;;;;;;11.40;10.50;;;12.70;99.90;;;;;;4879085;29;20424;-78
2023/04/07 10:08:42;;;;;;;9.90;9.07;;;12.70;99.90;;;;;;4877431;29;20458;-78
2023/04/07 10:11:09;;;;;;;9.20;8.57;;;12.80;99.90;;;;;;4892281;29;20897;-79
2023/04/07 10:13:38;;;;;;;10.40;9.60;;;12.80;99.90;;;;;;4877616;29;20906;-79
2023/04/07 10:16:05;;;;;;;9.40;8.70;;;12.80;99.90;;;;;;4878226;29;20475;-79
2023/04/07 10:18:33;;;;;;;9.90;9.17;;;12.80;99.90;;;;;;4878213;29;20472;-79
2023/04/07 10:21:06;;;;;;;10.27;9.50;;;12.90;99.90;;;;;;4878560;29;20416;-79
2023/04/07 10:23:50;;;;;;;9.80;9.10;;;12.90;99.90;;;;;;4877687;29;20414;-79
2023/04/07 10:26:20;;;;;;;10.27;9.47;;;12.80;99.90;;;;;;4877308;29;20812;-80
2023/04/07 10:28:50;;;;;;;9.70;9.00;;;12.80;99.90;;;;;;4883489;29;20443;-79
2023/04/07 10:31:16;;;;;;;8.40;7.80;;;12.80;99.90;;;;;;4878157;29;20732;-79
2023/04/07 10:33:48;;;;;;;10.50;9.60;;;12.80;99.90;;;;;;4876550;29;20421;-79
2023/04/07 10:36:15;;;;;;;580.80;379.23;;;12.70;99.90;;;;;;4878912;29;20449;-79
2023/04/07 10:38:41;;;;;;;618.33;435.80;;;12.70;99.90;;;;;;4878685;29;20499;-79
2023/04/07 10:41:40;;;;;;;37.03;28.77;;;12.70;99.90;;;;;;4882507;29;20503;-80
2023/04/07 10:44:08;;;;;;;9.30;8.50;;;12.70;99.90;;;;;;4861058;29;20776;-79
2023/04/07 10:46:47;;;;;;;8.97;8.17;;;12.70;99.90;;;;;;4881549;29;20420;-79
2023/04/07 10:49:13;;;;;;;10.20;9.60;;;12.70;99.90;;;;;;4882298;29;20417;-80
2023/04/07 10:51:39;;;;;;;9.20;8.50;;;12.70;99.90;;;;;;4881503;29;20416;-80
2023/04/07 10:54:21;;;;;;;9.83;9.00;;;12.70;99.90;;;;;;4884727;29;20760;-80
2023/04/07 10:57:02;;;;;;;8.00;7.40;;;12.70;99.90;;;;;;4900016;29;20450;-79
2023/04/07 10:59:29;;;;;;;9.10;8.40;;;12.80;99.90;;;;;;4900798;29;20896;-79
2023/04/07 11:02:13;;;;;;;8.10;7.40;;;12.80;99.90;;;;;;4898733;29;20411;-80
2023/04/07 11:04:43;;;;;;;9.17;8.10;;;12.80;99.90;;;;;;4883036;29;20493;-80
2023/04/07 11:07:10;;;;;;;9.37;8.53;;;12.80;99.90;;;;;;4875327;29;20422;-80
2023/04/07 11:09:36;;;;;;;8.27;7.67;;;12.80;99.90;;;;;;4878979;29;20425;-79
2023/04/07 11:12:03;;;;;;;8.83;8.13;;;12.40;99.90;;;;;;4881720;29;20415;-79
2023/04/07 11:14:31;;;;;;;9.20;8.30;;;12.40;99.90;;;;;;4879212;29;20464;-83
2023/04/07 11:16:58;;;;;;;10.37;9.47;;;12.50;99.90;;;;;;4879127;29;20289;-79
2023/04/07 11:19:24;;;;;;;9.83;9.03;;;12.50;99.90;;;;;;4881248;29;20773;-80
2023/04/07 11:21:50;;;;;;;8.87;8.13;;;12.60;99.90;;;;;;4880019;29;20504;-79
2023/04/07 11:24:37;;;;;;;9.47;8.77;;;12.60;99.90;;;;;;4880156;29;20802;-79
2023/04/07 11:27:03;;;;;;;8.83;8.13;;;12.70;99.90;;;;;;4881747;29;20208;-80
2023/04/07 11:29:30;;;;;;;9.23;8.53;;;12.70;99.90;;;;;;4881830;29;20920;-80
2023/04/07 11:32:00;;;;;;;9.00;8.30;;;12.80;99.90;;;;;;4879671;29;20912;-80
2023/04/07 11:34:30;;;;;;;10.03;9.23;;;12.80;99.90;;;;;;4881533;29;20410;-80
2023/04/07 11:36:58;;;;;;;9.17;8.47;;;12.90;99.90;;;;;;4880632;29;20460;-79
2023/04/07 11:39:32;;;;;;;9.67;8.87;;;12.90;99.90;;;;;;4880318;29;20421;-79
2023/04/07 11:41:57;;;;;;;9.73;9.00;;;12.90;99.90;;;;;;4879410;29;20431;-80
2023/04/07 11:44:25;;;;;;;245.73;154.27;;;12.90;99.90;;;;;;4880746;29;20418;-80
2023/04/07 11:46:56;;;;;;;251.40;201.57;;;12.80;99.90;;;;;;4881001;29;20178;-83
2023/04/07 11:49:30;;;;;;;15.47;13.97;;;12.80;99.90;;;;;;4881237;29;20417;-78
2023/04/07 11:52:05;;;;;;;14.50;11.10;;;12.90;99.90;;;;;;4880148;29;20420;-78
2023/04/07 11:54:49;;;;;;;12.40;11.17;;;12.90;99.90;;;;;;4881077;29;20434;-78
2023/04/07 11:57:26;;;;;;;16.20;13.33;;;12.80;99.90;;;;;;4881329;29;20515;-78
2023/04/07 12:00:24;;;;;;;15.70;12.50;;;12.80;99.90;;;;;;4880153;29;20421;-78
2023/04/07 12:02:51;;;;;;;16.73;12.83;;;12.80;99.90;;;;;;4858825;29;20436;-78
2023/04/07 12:05:16;;;;;;;18.23;13.43;;;12.70;99.90;;;;;;4881062;29;20427;-78
2023/04/07 12:07:53;;;;;;;16.20;12.87;;;12.70;99.90;;;;;;4880143;29;20488;-78
2023/04/07 12:10:19;;;;;;;20.40;14.47;;;12.70;99.90;;;;;;4881047;29;20248;-77
2023/04/07 12:12:46;;;;;;;20.73;13.87;;;12.60;99.90;;;;;;4879889;29;20763;-78
2023/04/07 12:15:13;;;;;;;16.77;13.30;;;12.60;99.90;;;;;;4880759;29;20495;-78
2023/04/07 12:17:47;;;;;;;14.83;12.30;;;12.60;99.90;;;;;;4879034;29;20465;-78
2023/04/07 12:20:13;;;;;;;12.83;11.43;;;12.60;99.90;;;;;;4880838;29;20406;-78
2023/04/07 12:22:40;;;;;;;14.27;12.30;;;12.70;99.90;;;;;;4880348;29;20429;-78
2023/04/07 12:25:06;;;;;;;12.17;9.53;;;12.70;99.90;;;;;;4880650;29;20416;-78
2023/04/07 12:27:32;;;;;;;9.63;8.70;;;12.70;99.90;;;;;;4880449;29;20414;-78
2023/04/07 12:29:57;;;;;;;10.53;9.60;;;12.70;99.90;;;;;;4879632;29;20425;-78
2023/04/07 12:32:23;;;;;;;10.63;9.63;;;12.80;99.90;;;;;;4880451;29;20254;-78
2023/04/07 12:34:49;;;;;;;10.23;9.23;;;12.70;99.90;;;;;;4879727;29;20232;-78
2023/04/07 12:37:15;;;;;;;10.67;9.53;;;12.80;99.90;;;;;;4880583;29;20560;-78
2023/04/07 12:39:40;;;;;;;10.43;9.43;;;12.80;99.90;;;;;;4879998;29;20173;-78
2023/04/07 12:42:10;;;;;;;10.00;9.10;;;12.70;99.90;;;;;;4880054;29;20912;-78